createdAt,value
2022-10-04T00:00:01.593Z,72.13
2022-10-04T00:01:03.812Z,72.14
2022-10-04T00:02:01.689Z,72.17
2022-10-04T00:03:01.616Z,72.18
2022-10-04T00:04:01.533Z,72.15
2022-10-04T00:05:01.529Z,72.12
2022-10-04T00:06:01.517Z,72.16
2022-10-04T00:08:21.332Z,71.86
2022-10-04T00:09:21.167Z,72.13
2022-10-04T00:10:21.158Z,72.10
2022-10-04T00:11:21.311Z,72.13
2022-10-04T00:12:21.154Z,72.09
2022-10-04T00:13:28.642Z,72.11
2022-10-04T00:14:28.634Z,72.14
2022-10-04T00:15:28.621Z,72.19
2022-10-04T00:16:29.882Z,72.26
2022-10-04T00:17:28.608Z,72.20
2022-10-04T00:18:28.693Z,72.26
2022-10-04T00:19:28.597Z,72.43
2022-10-04T00:22:50.354Z,72.39
2022-10-04T00:23:57.422Z,72.82
2022-10-04T00:24:57.420Z,72.75
2022-10-04T00:25:57.408Z,72.76
2022-10-04T00:26:57.404Z,72.74
2022-10-04T00:28:00.663Z,72.74
2022-10-04T00:28:57.436Z,72.70
2022-10-04T00:29:57.364Z,72.75
2022-10-04T00:30:57.396Z,72.85
2022-10-04T00:31:57.344Z,73.01
2022-10-04T00:32:57.344Z,73.01
2022-10-04T00:33:59.552Z,72.96
2022-10-04T00:34:57.351Z,72.93
2022-10-04T00:35:49.787Z,72.86
2022-10-04T00:36:49.782Z,72.75
2022-10-04T00:37:49.751Z,72.70
2022-10-04T00:38:49.753Z,72.65
2022-10-04T00:39:50.473Z,72.66
2022-10-04T00:40:49.724Z,72.63
2022-10-04T00:41:49.720Z,72.59
2022-10-04T00:42:49.725Z,72.64
2022-10-04T00:43:49.711Z,72.81
2022-10-04T00:44:49.688Z,73.08
2022-10-04T00:45:50.654Z,73.18
2022-10-04T00:46:49.660Z,73.21
2022-10-04T00:47:49.673Z,73.12
2022-10-04T00:48:49.661Z,73.12
2022-10-04T00:49:49.640Z,73.08
2022-10-04T00:50:49.640Z,73.17
2022-10-04T00:51:49.979Z,73.24
2022-10-04T00:52:49.599Z,73.31
2022-10-04T00:53:49.590Z,73.45
2022-10-04T00:54:49.570Z,73.61
2022-10-04T00:55:49.559Z,73.63
2022-10-04T00:56:49.549Z,73.62
2022-10-04T00:57:49.750Z,73.63
2022-10-04T00:58:49.547Z,73.62
2022-10-04T00:59:49.514Z,73.68
2022-10-04T01:00:49.580Z,73.75
2022-10-04T01:01:49.525Z,73.73
2022-10-04T01:02:49.510Z,73.63
2022-10-04T01:03:49.649Z,73.52
2022-10-04T01:04:49.469Z,73.47
2022-10-04T01:05:49.457Z,73.39
2022-10-04T01:06:49.446Z,73.36
2022-10-04T01:07:49.430Z,73.37
2022-10-04T01:08:49.416Z,73.25
2022-10-04T01:09:49.643Z,73.14
2022-10-04T01:10:49.428Z,73.05
2022-10-04T01:11:49.410Z,73.07
2022-10-04T01:12:49.480Z,73.00
2022-10-04T01:13:49.360Z,73.05
2022-10-04T01:14:49.350Z,73.04
2022-10-04T01:15:49.522Z,73.10
2022-10-04T01:16:49.331Z,73.26
2022-10-04T01:17:49.312Z,73.37
2022-10-04T01:18:49.325Z,73.31
2022-10-04T01:19:49.294Z,73.32
2022-10-04T01:20:49.292Z,73.34
2022-10-04T01:21:49.441Z,73.43
2022-10-04T01:22:49.270Z,73.42
2022-10-04T01:23:49.323Z,73.41
2022-10-04T01:24:49.252Z,73.36
2022-10-04T01:25:49.243Z,73.33
2022-10-04T01:26:49.240Z,73.31
2022-10-04T01:27:58.991Z,73.38
2022-10-04T01:28:49.312Z,73.45
2022-10-04T01:29:51.665Z,73.52
2022-10-04T01:30:56.760Z,73.61
2022-10-04T01:31:49.192Z,73.63
2022-10-04T01:32:49.273Z,73.71
2022-10-04T01:33:49.311Z,73.77
2022-10-04T01:34:49.139Z,73.87
2022-10-04T01:35:57.851Z,73.87
2022-10-04T01:36:56.637Z,73.95
2022-10-04T01:37:49.121Z,74.03
2022-10-04T01:38:49.094Z,73.96
2022-10-04T01:39:49.085Z,73.86
2022-10-04T01:40:49.075Z,73.85
2022-10-04T01:41:49.265Z,73.71
2022-10-04T01:42:49.049Z,73.62
2022-10-04T01:43:49.069Z,73.50
2022-10-04T01:44:49.046Z,73.40
2022-10-04T01:45:49.116Z,73.34
2022-10-04T01:46:49.109Z,73.30
2022-10-04T01:47:49.153Z,73.21
2022-10-04T01:48:48.985Z,73.19
2022-10-04T01:49:48.980Z,73.13
2022-10-04T01:50:49.118Z,73.07
2022-10-04T01:51:48.964Z,73.07
2022-10-04T01:52:48.956Z,73.12
2022-10-04T01:53:48.946Z,73.08
2022-10-04T01:54:48.928Z,73.02
2022-10-04T01:55:49.236Z,73.00
2022-10-04T01:56:48.935Z,73.08
2022-10-04T01:57:48.904Z,73.07
2022-10-04T01:58:48.894Z,73.06
2022-10-04T01:59:48.866Z,73.11
2022-10-04T02:00:48.894Z,73.05
2022-10-04T02:01:48.984Z,73.10
2022-10-04T02:02:48.834Z,73.21
2022-10-04T02:03:48.838Z,73.14
2022-10-04T02:04:48.861Z,73.17
2022-10-04T02:05:48.795Z,73.14
2022-10-04T02:06:49.167Z,73.11
2022-10-04T02:07:48.779Z,73.15
2022-10-04T02:08:48.785Z,73.13
2022-10-04T02:09:48.777Z,73.19
2022-10-04T02:10:48.746Z,73.28
2022-10-04T02:11:48.740Z,73.35
2022-10-04T02:12:49.131Z,73.32
2022-10-04T02:13:48.708Z,73.46
2022-10-04T02:14:48.703Z,73.43
2022-10-04T02:15:48.766Z,73.45
2022-10-04T02:16:48.689Z,73.42
2022-10-04T02:17:48.680Z,73.42
2022-10-04T02:18:48.905Z,73.44
2022-10-04T02:19:48.654Z,73.58
2022-10-04T02:20:48.662Z,73.48
2022-10-04T02:21:48.621Z,73.68
2022-10-04T02:22:48.623Z,73.67
2022-10-04T02:23:48.604Z,73.77
2022-10-04T02:24:48.816Z,73.71
2022-10-04T02:25:48.592Z,73.62
2022-10-04T02:26:48.574Z,73.66
2022-10-04T02:27:48.578Z,73.63
2022-10-04T02:28:48.569Z,73.65
2022-10-04T02:29:48.784Z,73.61
2022-10-04T02:30:48.520Z,73.65
2022-10-04T02:31:57.086Z,73.59
2022-10-04T02:32:48.528Z,73.76
2022-10-04T02:33:48.506Z,73.73
2022-10-04T02:34:48.491Z,73.76
2022-10-04T02:35:48.651Z,73.66
2022-10-04T02:36:48.460Z,73.68
2022-10-04T02:37:48.464Z,73.72
2022-10-04T02:38:48.436Z,73.76
2022-10-04T02:39:48.429Z,73.67
2022-10-04T02:40:48.435Z,73.63
2022-10-04T02:41:48.694Z,73.59
2022-10-04T02:42:48.407Z,73.61
2022-10-04T02:43:48.404Z,73.63
2022-10-04T02:44:48.367Z,73.63
2022-10-04T02:45:48.375Z,73.62
2022-10-04T02:46:48.396Z,73.60
2022-10-04T02:47:48.514Z,73.64
2022-10-04T02:48:48.327Z,73.71
2022-10-04T02:49:48.329Z,73.65
2022-10-04T02:50:48.305Z,73.61
2022-10-04T02:51:58.017Z,73.67
2022-10-04T02:52:48.278Z,73.68
2022-10-04T02:53:48.330Z,73.65
2022-10-04T02:54:48.257Z,73.59
2022-10-04T02:55:48.256Z,73.60
2022-10-04T02:56:48.241Z,73.58
2022-10-04T02:57:48.382Z,73.60
2022-10-04T02:58:48.217Z,73.70
2022-10-04T02:59:48.210Z,73.74
2022-10-04T03:00:48.282Z,73.70
2022-10-04T03:01:48.296Z,73.67
2022-10-04T03:02:48.310Z,73.70
2022-10-04T03:03:48.557Z,73.69
2022-10-04T03:04:48.141Z,73.72
2022-10-04T03:05:48.146Z,73.70
2022-10-04T03:06:48.129Z,73.82
2022-10-04T03:07:48.120Z,73.92
2022-10-04T03:08:48.110Z,73.92
2022-10-04T03:09:48.308Z,73.84
2022-10-04T03:10:48.082Z,74.00
2022-10-04T03:11:48.076Z,74.14
2022-10-04T03:12:48.059Z,74.11
2022-10-04T03:13:48.057Z,74.14
2022-10-04T03:14:48.049Z,74.07
2022-10-04T03:15:48.449Z,74.08
2022-10-04T03:16:48.026Z,74.08
2022-10-04T03:17:48.028Z,74.07
2022-10-04T03:18:48.016Z,74.11
2022-10-04T03:19:47.987Z,74.06
2022-10-04T03:20:47.971Z,74.01
2022-10-04T03:21:48.129Z,73.99
2022-10-04T03:22:47.958Z,74.01
2022-10-04T03:23:47.940Z,74.00
2022-10-04T03:24:47.928Z,74.08
2022-10-04T03:25:47.917Z,74.08
2022-10-04T03:26:57.634Z,74.15
2022-10-04T03:27:47.899Z,74.08
2022-10-04T03:28:47.885Z,74.18
2022-10-04T03:29:47.878Z,74.15
2022-10-04T03:30:47.865Z,74.09
2022-10-04T03:31:47.904Z,74.05
2022-10-04T03:32:48.165Z,74.01
2022-10-04T03:33:47.838Z,73.97
2022-10-04T03:34:47.831Z,73.97
2022-10-04T03:35:47.835Z,73.93
2022-10-04T03:36:47.816Z,73.96
2022-10-04T03:37:47.791Z,74.02
2022-10-04T03:38:48.090Z,74.04
2022-10-04T03:39:47.793Z,74.07
2022-10-04T03:40:47.776Z,74.06
2022-10-04T03:41:56.280Z,74.04
2022-10-04T03:43:23.315Z,74.03
2022-10-04T03:44:00.413Z,73.97
2022-10-04T03:47:10.647Z,73.66
2022-10-04T03:48:18.154Z,74.02
2022-10-04T03:49:19.364Z,74.13
2022-10-04T03:50:27.663Z,74.12
2022-10-04T03:51:18.126Z,74.01
2022-10-04T03:52:18.082Z,73.96
2022-10-04T03:53:10.569Z,74.04
2022-10-04T03:54:10.577Z,74.17
2022-10-04T03:55:10.722Z,74.20
2022-10-04T03:56:10.540Z,74.19
2022-10-04T03:57:10.527Z,74.16
2022-10-04T03:58:10.519Z,74.23
2022-10-04T03:59:10.511Z,74.16
2022-10-04T04:00:10.494Z,74.15
2022-10-04T04:01:10.756Z,74.12
2022-10-04T04:02:10.516Z,74.14
2022-10-04T04:03:10.469Z,74.19
2022-10-04T04:04:10.467Z,74.13
2022-10-04T04:05:10.458Z,74.13
2022-10-04T04:06:10.429Z,74.20
2022-10-04T04:07:10.752Z,74.21
2022-10-04T04:08:10.409Z,74.33
2022-10-04T04:09:10.413Z,74.42
2022-10-04T04:10:14.562Z,74.45
2022-10-04T04:11:11.379Z,74.49
2022-10-04T04:12:10.362Z,74.55
2022-10-04T04:13:10.601Z,74.45
2022-10-04T04:14:10.349Z,74.67
2022-10-04T04:15:10.354Z,74.69
2022-10-04T04:16:10.357Z,74.60
2022-10-04T04:17:10.311Z,74.54
2022-10-04T04:18:10.300Z,74.50
2022-10-04T04:19:10.449Z,74.42
2022-10-04T04:20:10.281Z,74.45
2022-10-04T04:21:10.355Z,74.41
2022-10-04T04:22:10.303Z,74.57
2022-10-04T04:23:10.281Z,74.47
2022-10-04T04:24:10.586Z,74.50
2022-10-04T04:25:10.233Z,74.65
2022-10-04T04:26:10.225Z,74.54
2022-10-04T04:27:10.241Z,74.51
2022-10-04T04:28:10.260Z,74.63
2022-10-04T04:29:10.202Z,74.59
2022-10-04T04:30:10.360Z,74.62
2022-10-04T04:31:10.167Z,74.54
2022-10-04T04:32:10.255Z,74.48
2022-10-04T04:33:10.172Z,74.52
2022-10-04T04:34:10.151Z,74.61
2022-10-04T04:35:10.130Z,74.52
2022-10-04T04:38:27.327Z,74.24
2022-10-04T04:39:27.062Z,74.51
2022-10-04T04:40:27.045Z,74.58
2022-10-04T04:41:27.100Z,74.49
2022-10-04T04:42:27.017Z,74.42
2022-10-04T04:43:27.051Z,74.43
2022-10-04T04:44:27.225Z,74.45
2022-10-04T04:45:27.077Z,74.52
2022-10-04T04:46:28.161Z,74.52
2022-10-04T04:47:26.968Z,74.52
2022-10-04T04:48:26.972Z,74.55
2022-10-04T04:49:26.945Z,74.48
2022-10-04T04:50:27.101Z,74.37
2022-10-04T04:51:34.459Z,74.43
2022-10-04T04:52:26.913Z,74.49
2022-10-04T04:53:26.895Z,74.42
2022-10-04T04:54:26.893Z,74.41
2022-10-04T04:55:26.875Z,74.48
2022-10-04T04:56:27.076Z,74.43
2022-10-04T04:57:26.862Z,74.49
2022-10-04T04:58:26.835Z,74.50
2022-10-04T04:59:26.824Z,74.52
2022-10-04T05:00:26.820Z,74.56
2022-10-04T05:01:26.913Z,74.78
2022-10-04T05:02:26.998Z,74.90
2022-10-04T05:03:26.792Z,74.81
2022-10-04T05:04:26.772Z,74.82
2022-10-04T05:05:26.772Z,74.82
2022-10-04T05:06:26.760Z,74.86
2022-10-04T05:07:26.746Z,74.93
2022-10-04T05:08:27.073Z,74.91
2022-10-04T05:09:26.728Z,75.09
2022-10-04T05:10:26.723Z,74.98
2022-10-04T05:11:26.705Z,75.00
2022-10-04T05:12:26.702Z,74.93
2022-10-04T05:13:26.693Z,74.89
2022-10-04T05:14:26.838Z,74.89
2022-10-04T05:15:26.672Z,74.88
2022-10-04T05:16:26.987Z,74.90
2022-10-04T05:17:26.654Z,74.94
2022-10-04T05:18:26.628Z,75.07
2022-10-04T05:19:26.634Z,75.08
2022-10-04T05:20:26.614Z,75.03
2022-10-04T05:21:26.594Z,75.10
2022-10-04T05:22:26.603Z,75.21
2022-10-04T05:23:26.582Z,75.23
2022-10-04T05:24:26.556Z,75.13
2022-10-04T05:25:26.544Z,75.06
2022-10-04T05:26:26.541Z,75.05
2022-10-04T05:27:26.555Z,75.08
2022-10-04T05:28:26.782Z,75.08
2022-10-04T05:29:26.517Z,75.02
2022-10-04T05:30:26.503Z,75.11
2022-10-04T05:31:26.558Z,75.09
2022-10-04T05:32:26.464Z,75.14
2022-10-04T05:33:28.625Z,75.28
2022-10-04T05:34:27.832Z,75.32
2022-10-04T05:35:26.450Z,75.33
2022-10-04T05:36:26.439Z,75.29
2022-10-04T05:37:26.425Z,75.30
2022-10-04T05:38:26.413Z,75.29
2022-10-04T05:39:26.402Z,75.20
2022-10-04T05:40:26.558Z,75.30
2022-10-04T05:41:29.142Z,75.37
2022-10-04T05:42:27.363Z,75.38
2022-10-04T05:43:26.359Z,75.47
2022-10-04T05:44:26.357Z,75.46
2022-10-04T05:45:26.444Z,75.48
2022-10-04T05:46:26.593Z,75.42
2022-10-04T05:47:26.316Z,75.31
2022-10-04T05:48:26.295Z,75.29
2022-10-04T05:49:26.320Z,75.34
2022-10-04T05:50:26.290Z,75.30
2022-10-04T05:51:26.264Z,75.24
2022-10-04T05:52:26.402Z,75.22
2022-10-04T05:53:26.252Z,75.14
2022-10-04T05:54:27.138Z,75.10
2022-10-04T05:55:26.244Z,75.07
2022-10-04T05:56:26.234Z,74.98
2022-10-04T05:57:26.198Z,74.98
2022-10-04T05:58:26.196Z,74.99
2022-10-04T05:59:26.175Z,75.07
2022-10-04T06:00:26.325Z,75.06
2022-10-04T06:01:26.228Z,75.04
2022-10-04T06:02:26.194Z,75.00
2022-10-04T06:03:26.141Z,75.01
2022-10-04T06:04:26.138Z,75.12
2022-10-04T06:05:29.037Z,75.10
2022-10-04T06:06:26.275Z,75.10
2022-10-04T06:07:26.101Z,75.11
2022-10-04T06:08:26.076Z,75.18
2022-10-04T06:09:26.071Z,75.25
2022-10-04T06:10:26.093Z,75.31
2022-10-04T06:11:26.062Z,75.25
2022-10-04T06:12:26.388Z,75.28
2022-10-04T06:13:26.068Z,75.22
2022-10-04T06:14:26.007Z,75.17
2022-10-04T06:15:26.020Z,75.25
2022-10-04T06:16:26.032Z,75.26
2022-10-04T06:17:25.985Z,75.35
2022-10-04T06:18:26.337Z,75.35
2022-10-04T06:19:25.964Z,75.29
2022-10-04T06:20:25.944Z,75.28
2022-10-04T06:21:25.942Z,75.15
2022-10-04T06:22:25.934Z,75.09
2022-10-04T06:23:25.933Z,75.09
2022-10-04T06:24:27.063Z,75.12
2022-10-04T06:25:25.898Z,75.24
2022-10-04T06:26:25.881Z,75.28
2022-10-04T06:27:25.873Z,75.18
2022-10-04T06:28:25.919Z,75.23
2022-10-04T06:29:25.857Z,75.36
2022-10-04T06:30:26.115Z,75.35
2022-10-04T06:31:25.826Z,75.43
2022-10-04T06:32:25.822Z,75.30
2022-10-04T06:33:25.804Z,75.34
2022-10-04T06:34:25.795Z,75.39
2022-10-04T06:35:25.792Z,75.44
2022-10-04T06:36:25.937Z,75.43
2022-10-04T06:37:25.763Z,75.56
2022-10-04T06:38:25.751Z,75.52
2022-10-04T06:39:25.742Z,75.45
2022-10-04T06:40:25.780Z,75.47
2022-10-04T06:41:25.715Z,75.45
2022-10-04T06:42:25.917Z,75.47
2022-10-04T06:43:25.697Z,75.49
2022-10-04T06:44:25.715Z,75.48
2022-10-04T06:45:25.681Z,75.56
2022-10-04T06:46:25.709Z,75.64
2022-10-04T06:47:25.654Z,75.61
2022-10-04T06:48:25.812Z,75.67
2022-10-04T06:49:25.650Z,75.60
2022-10-04T06:50:25.632Z,75.75
2022-10-04T06:51:25.634Z,75.92
2022-10-04T06:52:25.598Z,75.86
2022-10-04T06:53:25.583Z,75.75
2022-10-04T06:54:25.782Z,75.72
2022-10-04T06:55:25.574Z,75.72
2022-10-04T06:56:25.559Z,75.76
2022-10-04T06:57:25.545Z,75.67
2022-10-04T06:58:25.533Z,75.69
2022-10-04T06:59:25.531Z,75.69
2022-10-04T07:00:25.662Z,75.63
2022-10-04T07:01:25.549Z,75.70
2022-10-04T07:02:25.558Z,75.62
2022-10-04T07:03:25.496Z,75.60
2022-10-04T07:04:25.479Z,75.52
2022-10-04T07:05:25.460Z,75.50
2022-10-04T07:06:25.814Z,75.55
2022-10-04T07:07:25.459Z,75.45
2022-10-04T07:08:25.424Z,75.41
2022-10-04T07:09:25.427Z,75.36
2022-10-04T07:10:25.407Z,75.31
2022-10-04T07:11:25.412Z,75.28
2022-10-04T07:12:25.594Z,75.24
2022-10-04T07:13:25.373Z,75.20
2022-10-04T07:14:25.362Z,75.15
2022-10-04T07:15:25.359Z,75.15
2022-10-04T07:16:25.337Z,75.13
2022-10-04T07:17:25.330Z,75.12
2022-10-04T07:18:25.346Z,75.09
2022-10-04T07:19:25.319Z,75.05
2022-10-04T07:20:25.291Z,75.08
2022-10-04T07:21:25.282Z,75.08
2022-10-04T07:22:25.290Z,75.22
2022-10-04T07:23:28.556Z,75.18
2022-10-04T07:24:25.306Z,75.14
2022-10-04T07:25:25.253Z,75.36
2022-10-04T07:26:25.229Z,75.27
2022-10-04T07:27:25.220Z,75.31
2022-10-04T07:28:25.278Z,75.32
2022-10-04T07:29:25.199Z,75.25
2022-10-04T07:30:25.478Z,75.16
2022-10-04T07:31:25.284Z,75.08
2022-10-04T07:32:25.178Z,75.04
2022-10-04T07:33:25.164Z,74.98
2022-10-04T07:34:25.153Z,74.99
2022-10-04T07:35:25.143Z,74.93
2022-10-04T07:36:25.316Z,74.91
2022-10-04T07:37:25.120Z,75.00
2022-10-04T07:38:25.102Z,75.00
2022-10-04T07:39:25.115Z,75.00
2022-10-04T07:40:25.167Z,74.95
2022-10-04T07:41:25.085Z,74.88
2022-10-04T07:42:25.073Z,74.92
2022-10-04T07:43:25.051Z,74.86
2022-10-04T07:44:25.037Z,74.91
2022-10-04T07:45:29.733Z,75.01
2022-10-04T07:46:26.047Z,74.92
2022-10-04T07:47:25.022Z,74.86
2022-10-04T07:48:25.043Z,74.78
2022-10-04T07:49:32.483Z,74.79
2022-10-04T07:50:33.480Z,74.88
2022-10-04T07:51:32.472Z,74.88
2022-10-04T07:52:24.940Z,74.84
2022-10-04T07:53:33.628Z,74.59
2022-10-04T07:54:32.438Z,74.68
2022-10-04T07:55:32.422Z,74.70
2022-10-04T07:56:33.117Z,74.60
2022-10-04T07:57:32.444Z,74.58
2022-10-04T07:58:32.385Z,74.60
2022-10-04T07:59:33.583Z,74.54
2022-10-04T08:00:32.367Z,74.51
2022-10-04T08:01:24.851Z,74.44
2022-10-04T08:02:30.175Z,74.39
2022-10-04T08:03:25.843Z,74.37
2022-10-04T08:04:24.841Z,74.37
2022-10-04T08:05:24.971Z,74.34
2022-10-04T08:06:24.827Z,74.26
2022-10-04T08:07:25.016Z,74.31
2022-10-04T08:08:24.772Z,74.37
2022-10-04T08:09:24.765Z,74.47
2022-10-04T08:10:24.759Z,74.33
2022-10-04T08:11:24.747Z,74.14
2022-10-04T08:12:24.731Z,74.07
2022-10-04T08:13:24.909Z,74.11
2022-10-04T08:14:24.712Z,74.13
2022-10-04T08:15:24.715Z,74.15
2022-10-04T08:16:24.794Z,74.19
2022-10-04T08:17:24.702Z,74.20
2022-10-04T08:18:24.674Z,74.23
2022-10-04T08:19:24.824Z,74.28
2022-10-04T08:20:24.635Z,74.27
2022-10-04T08:21:24.627Z,74.22
2022-10-04T08:22:24.635Z,74.22
2022-10-04T08:23:24.611Z,74.19
2022-10-04T08:24:24.613Z,74.19
2022-10-04T08:25:24.756Z,74.19
2022-10-04T08:26:24.577Z,74.12
2022-10-04T08:27:24.572Z,74.12
2022-10-04T08:28:24.592Z,74.10
2022-10-04T08:29:24.542Z,74.09
2022-10-04T08:30:24.536Z,74.09
2022-10-04T08:31:24.837Z,74.10
2022-10-04T08:32:24.509Z,74.03
2022-10-04T08:33:24.513Z,74.01
2022-10-04T08:34:24.479Z,74.07
2022-10-04T08:35:24.473Z,74.13
2022-10-04T08:36:24.474Z,74.11
2022-10-04T08:37:24.799Z,74.18
2022-10-04T08:38:24.451Z,74.16
2022-10-04T08:39:24.443Z,74.11
2022-10-04T08:40:24.433Z,74.05
2022-10-04T08:41:24.413Z,74.04
2022-10-04T08:42:24.401Z,74.01
2022-10-04T08:43:24.588Z,74.07
2022-10-04T08:44:24.393Z,74.16
2022-10-04T08:45:24.382Z,74.16
2022-10-04T08:46:24.421Z,74.10
2022-10-04T08:47:24.341Z,74.10
2022-10-04T08:48:24.335Z,74.13
2022-10-04T08:49:24.514Z,74.19
2022-10-04T08:50:24.312Z,74.11
2022-10-04T08:51:24.307Z,74.05
2022-10-04T08:52:24.292Z,74.06
2022-10-04T08:53:24.282Z,74.10
2022-10-04T08:54:24.273Z,74.12
2022-10-04T08:55:24.412Z,74.11
2022-10-04T08:56:24.273Z,74.11
2022-10-04T08:57:24.235Z,74.12
2022-10-04T08:58:24.222Z,74.24
2022-10-04T08:59:24.227Z,74.25
2022-10-04T09:00:24.201Z,74.21
2022-10-04T09:01:24.418Z,74.19
2022-10-04T09:02:24.247Z,74.10
2022-10-04T09:03:24.982Z,74.27
2022-10-04T09:04:24.161Z,74.42
2022-10-04T09:05:24.151Z,74.35
2022-10-04T09:06:24.135Z,74.28
2022-10-04T09:07:24.306Z,74.24
2022-10-04T09:08:24.127Z,74.25
2022-10-04T09:09:24.101Z,74.22
2022-10-04T09:10:25.236Z,74.26
2022-10-04T09:11:24.084Z,74.16
2022-10-04T09:12:24.079Z,74.10
2022-10-04T09:13:24.242Z,73.96
2022-10-04T09:14:24.059Z,73.64
2022-10-04T09:15:24.031Z,73.55
2022-10-04T09:16:24.115Z,73.58
2022-10-04T09:17:24.033Z,73.45
2022-10-04T09:18:24.023Z,73.55
2022-10-04T09:19:24.163Z,73.57
2022-10-04T09:20:38.478Z,73.53
2022-10-04T09:21:24.974Z,73.49
2022-10-04T09:22:23.968Z,73.41
2022-10-04T09:23:23.956Z,73.39
2022-10-04T09:24:23.962Z,73.23
2022-10-04T09:25:24.150Z,73.20
2022-10-04T09:26:23.932Z,73.25
2022-10-04T09:27:53.199Z,73.16
2022-10-04T09:28:24.929Z,73.08
2022-10-04T09:29:23.890Z,72.89
2022-10-04T09:30:23.885Z,72.89
2022-10-04T09:31:24.160Z,73.08
2022-10-04T09:32:23.881Z,73.14
2022-10-04T09:33:23.848Z,72.77
2022-10-04T09:34:23.835Z,72.60
2022-10-04T09:35:23.821Z,72.59
2022-10-04T09:36:23.817Z,72.48
2022-10-04T09:37:23.958Z,72.39
2022-10-04T09:38:23.802Z,72.29
2022-10-04T09:39:30.481Z,72.35
2022-10-04T09:40:24.769Z,72.25
2022-10-04T09:41:23.755Z,72.39
2022-10-04T09:42:23.759Z,72.32
2022-10-04T09:43:23.731Z,72.23
2022-10-04T09:44:23.721Z,72.11
2022-10-04T09:45:23.886Z,71.95
2022-10-04T09:46:23.769Z,71.94
2022-10-04T09:47:23.691Z,71.78
2022-10-04T09:48:23.681Z,71.40
2022-10-04T09:49:23.673Z,71.21
2022-10-04T09:50:23.661Z,71.29
2022-10-04T09:51:23.830Z,71.23
2022-10-04T09:52:23.656Z,70.69
2022-10-04T09:53:23.620Z,70.37
2022-10-04T09:54:23.612Z,69.79
2022-10-04T09:55:23.782Z,69.40
2022-10-04T09:56:23.611Z,69.25
2022-10-04T09:57:23.582Z,69.26
2022-10-04T09:58:23.573Z,69.29
2022-10-04T09:59:23.565Z,69.31
2022-10-04T10:00:23.585Z,68.82
2022-10-04T10:01:23.762Z,68.26
2022-10-04T10:02:23.563Z,68.09
2022-10-04T10:03:23.592Z,68.23
2022-10-04T10:04:23.528Z,68.10
2022-10-04T10:05:23.499Z,67.91
2022-10-04T10:06:23.488Z,67.51
2022-10-04T10:07:23.820Z,67.19
2022-10-04T10:08:27.975Z,66.76
2022-10-04T10:09:23.451Z,66.46
2022-10-04T10:10:23.441Z,66.45
2022-10-04T10:11:23.420Z,66.32
2022-10-04T10:12:23.428Z,66.14
2022-10-04T10:13:23.750Z,65.96
2022-10-04T10:14:23.421Z,65.85
2022-10-04T10:15:23.401Z,65.47
2022-10-04T10:16:23.449Z,65.64
2022-10-04T10:17:23.361Z,65.64
2022-10-04T10:18:23.361Z,65.58
2022-10-04T10:19:28.063Z,65.50
2022-10-04T10:20:23.337Z,65.56
2022-10-04T10:21:23.329Z,65.44
2022-10-04T10:22:23.302Z,65.63
2022-10-04T10:23:23.290Z,65.76
2022-10-04T10:24:23.300Z,65.33
2022-10-04T10:25:23.461Z,65.29
2022-10-04T10:26:23.251Z,65.21
2022-10-04T10:27:23.260Z,64.77
2022-10-04T10:28:23.316Z,64.03
2022-10-04T10:29:23.253Z,63.67
2022-10-04T10:30:23.221Z,63.74
2022-10-04T10:31:23.431Z,63.92
2022-10-04T10:32:23.201Z,63.91
2022-10-04T10:33:23.210Z,63.89
2022-10-04T10:34:23.194Z,63.86
2022-10-04T10:35:23.162Z,63.05
2022-10-04T10:36:23.162Z,63.06
2022-10-04T10:37:23.300Z,63.11
2022-10-04T10:38:23.156Z,63.33
2022-10-04T10:39:23.121Z,63.25
2022-10-04T10:40:23.125Z,63.36
2022-10-04T10:41:23.091Z,63.26
2022-10-04T10:42:23.096Z,63.10
2022-10-04T10:43:23.324Z,62.78
2022-10-04T10:44:23.069Z,62.85
2022-10-04T10:45:23.054Z,63.05
2022-10-04T10:46:23.089Z,62.32
2022-10-04T10:47:23.032Z,62.29
2022-10-04T10:48:23.023Z,61.90
2022-10-04T10:49:23.182Z,61.89
2022-10-04T10:50:23.002Z,61.76
2022-10-04T10:51:23.014Z,62.00
2022-10-04T10:52:23.006Z,62.04
2022-10-04T10:53:22.982Z,62.20
2022-10-04T10:54:22.978Z,62.37
2022-10-04T10:55:23.142Z,62.74
2022-10-04T10:56:26.703Z,62.96
2022-10-04T10:57:23.926Z,62.69
2022-10-04T10:58:22.917Z,62.21
2022-10-04T10:59:22.920Z,61.92
2022-10-04T11:00:22.896Z,61.61
2022-10-04T11:01:23.129Z,61.66
2022-10-04T11:02:37.218Z,61.50
2022-10-04T11:03:27.202Z,61.51
2022-10-04T11:04:23.852Z,61.42
2022-10-04T11:05:22.842Z,61.64
2022-10-04T11:06:22.864Z,61.81
2022-10-04T11:07:23.011Z,61.26
2022-10-04T11:08:22.866Z,61.23
2022-10-04T11:09:22.811Z,61.17
2022-10-04T11:10:22.799Z,61.19
2022-10-04T11:11:22.791Z,61.17
2022-10-04T11:12:22.781Z,61.32
2022-10-04T11:13:22.902Z,61.48
2022-10-04T11:14:22.773Z,61.81
2022-10-04T11:15:22.788Z,61.93
2022-10-04T11:16:22.758Z,61.83
2022-10-04T11:17:22.721Z,61.66
2022-10-04T11:18:22.704Z,61.95
2022-10-04T11:19:23.092Z,62.22
2022-10-04T11:20:22.676Z,62.32
2022-10-04T11:21:22.694Z,62.43
2022-10-04T11:22:22.738Z,62.14
2022-10-04T11:23:22.660Z,62.18
2022-10-04T11:24:22.677Z,62.38
2022-10-04T11:25:22.867Z,61.95
2022-10-04T11:26:22.612Z,61.99
2022-10-04T11:27:22.591Z,61.55
2022-10-04T11:28:22.700Z,61.09
2022-10-04T11:29:22.563Z,61.13
2022-10-04T11:30:22.561Z,61.41
2022-10-04T11:31:22.830Z,61.78
2022-10-04T11:32:22.582Z,61.97
2022-10-04T11:33:22.553Z,61.80
2022-10-04T11:34:22.533Z,62.20
2022-10-04T11:35:22.510Z,62.21
2022-10-04T11:36:22.529Z,61.81
2022-10-04T11:37:22.673Z,61.44
2022-10-04T11:38:22.512Z,61.44
2022-10-04T11:39:22.525Z,61.64
2022-10-04T11:40:22.457Z,61.72
2022-10-04T11:41:22.468Z,61.83
2022-10-04T11:42:22.453Z,61.77
2022-10-04T11:43:22.594Z,61.79
2022-10-04T11:44:22.482Z,61.40
2022-10-04T11:45:22.413Z,61.20
2022-10-04T11:46:22.425Z,61.05
2022-10-04T11:47:22.393Z,60.35
2022-10-04T11:48:22.553Z,60.35
2022-10-04T11:49:22.396Z,60.07
2022-10-04T11:50:22.393Z,60.38
2022-10-04T11:51:22.354Z,60.45
2022-10-04T11:52:22.393Z,60.50
2022-10-04T11:53:22.342Z,60.19
2022-10-04T11:54:22.531Z,59.93
2022-10-04T11:55:22.293Z,59.55
2022-10-04T11:56:22.288Z,59.85
2022-10-04T11:57:22.283Z,59.64
2022-10-04T11:58:22.270Z,59.26
2022-10-04T11:59:22.253Z,58.79
2022-10-04T12:00:22.453Z,58.51
2022-10-04T12:01:22.279Z,58.58
2022-10-04T12:02:22.223Z,58.59
2022-10-04T12:03:22.247Z,58.53
2022-10-04T12:04:22.313Z,58.35
2022-10-04T12:05:22.187Z,58.12
2022-10-04T12:06:46.858Z,58.00
2022-10-04T12:07:30.941Z,58.14
2022-10-04T12:08:29.679Z,58.41
2022-10-04T12:09:29.706Z,58.52
2022-10-04T12:10:30.648Z,58.65
2022-10-04T12:11:30.367Z,58.88
2022-10-04T12:12:32.056Z,58.79
2022-10-04T12:13:40.605Z,58.95
2022-10-04T12:14:30.613Z,58.88
2022-10-04T12:15:45.122Z,58.84
2022-10-04T12:16:49.001Z,58.83
2022-10-04T12:17:30.584Z,58.57
2022-10-04T12:18:22.259Z,58.70
2022-10-04T12:19:22.030Z,58.77
2022-10-04T12:20:22.266Z,58.95
2022-10-04T12:21:22.013Z,59.11
2022-10-04T12:22:22.020Z,59.29
2022-10-04T12:23:22.010Z,59.55
2022-10-04T12:24:21.977Z,60.11
2022-10-04T12:25:21.990Z,59.85
2022-10-04T12:26:22.221Z,59.96
2022-10-04T12:27:21.942Z,59.94
2022-10-04T12:28:21.964Z,59.74
2022-10-04T12:29:21.928Z,59.59
2022-10-04T12:30:21.899Z,59.52
2022-10-04T12:31:21.946Z,59.96
2022-10-04T12:32:22.080Z,59.82
2022-10-04T12:33:21.870Z,59.44
2022-10-04T12:34:21.874Z,59.56
2022-10-04T12:35:21.855Z,59.49
2022-10-04T12:36:21.865Z,59.35
2022-10-04T12:37:21.846Z,59.43
2022-10-04T12:38:22.074Z,59.38
2022-10-04T12:39:21.833Z,59.45
2022-10-04T12:40:21.821Z,59.31
2022-10-04T12:41:21.789Z,59.40
2022-10-04T12:42:21.771Z,59.27
2022-10-04T12:43:21.786Z,58.76
2022-10-04T12:44:21.936Z,58.20
2022-10-04T12:45:21.749Z,58.45
2022-10-04T12:46:21.813Z,58.63
2022-10-04T12:47:21.729Z,58.78
2022-10-04T12:48:21.722Z,58.41
2022-10-04T12:49:21.719Z,58.08
2022-10-04T12:50:21.920Z,58.00
2022-10-04T12:51:21.672Z,58.37
2022-10-04T12:52:21.695Z,58.46
2022-10-04T12:53:21.650Z,58.28
2022-10-04T12:54:21.659Z,58.36
2022-10-04T12:55:21.650Z,58.50
2022-10-04T12:56:21.906Z,58.62
2022-10-04T12:57:21.623Z,58.02
2022-10-04T12:58:21.600Z,57.98
2022-10-04T12:59:21.611Z,58.14
2022-10-04T13:00:21.583Z,58.55